sensor_id;sensor_type;location;lat;lon;timestamp;pressure;altitude;pressure_sealevel;temperature;humidity
15260;BME280;34462;51.368;12.364;2023-02-18T00:01:41;19185.88;;;-141.84;73.19
15260;BME280;34462;51.368;12.364;2023-02-18T00:04:11;19151.34;;;-141.84;73.83
15260;BME280;34462;51.368;12.364;2023-02-18T00:06:39;19155.41;;;-141.84;73.83
15260;BME280;34462;51.368;12.364;2023-02-18T00:09:07;19151.34;;;-141.84;74.09
15260;BME280;34462;51.368;12.364;2023-02-18T00:11:37;19163.53;;;-141.84;73.23
15260;BME280;34462;51.368;12.364;2023-02-18T00:14:13;19179.78;;;-141.84;72.14
15260;BME280;34462;51.368;12.364;2023-02-18T00:16:42;19179.78;;;-141.84;72.00
15260;BME280;34462;51.368;12.364;2023-02-18T00:19:16;19145.25;;;-141.84;72.07
15260;BME280;34462;51.368;12.364;2023-02-18T00:21:45;19167.59;;;-141.84;72.38
15260;BME280;34462;51.368;12.364;2023-02-18T00:24:15;19155.41;;;-141.84;73.17
15260;BME280;34462;51.368;12.364;2023-02-18T00:26:44;19151.34;;;-141.84;73.62
15260;BME280;34462;51.368;12.364;2023-02-18T00:29:12;19159.47;;;-141.84;73.99
15260;BME280;34462;51.368;12.364;2023-02-18T00:31:41;19147.28;;;-141.84;74.92
15260;BME280;34462;51.368;12.364;2023-02-18T00:34:12;19147.28;;;-141.84;75.93
15260;BME280;34462;51.368;12.364;2023-02-18T00:36:41;19147.28;;;-141.84;76.14
15260;BME280;34462;51.368;12.364;2023-02-18T00:39:10;19151.34;;;-141.84;76.04
15260;BME280;34462;51.368;12.364;2023-02-18T00:41:39;19147.28;;;-141.84;74.40
15260;BME280;34462;51.368;12.364;2023-02-18T00:44:09;19192.00;;;-141.84;73.86
15260;BME280;34462;51.368;12.364;2023-02-18T00:46:37;19167.59;;;-141.84;72.96
15260;BME280;34462;51.368;12.364;2023-02-18T00:49:06;19167.59;;;-141.84;73.12
15260;BME280;34462;51.368;12.364;2023-02-18T00:51:36;19200.13;;;-141.84;72.72
15260;BME280;34462;51.368;12.364;2023-02-18T00:54:04;19151.34;;;-141.84;71.90
15260;BME280;34462;51.368;12.364;2023-02-18T00:56:33;19192.00;;;-141.84;71.76
15260;BME280;34462;51.368;12.364;2023-02-18T00:59:02;19189.97;;;-141.84;70.48
15260;BME280;34462;51.368;12.364;2023-02-18T01:01:30;19200.13;;;-141.84;69.83
15260;BME280;34462;51.368;12.364;2023-02-18T01:03:58;19242.78;;;-141.84;68.60
15260;BME280;34462;51.368;12.364;2023-02-18T01:06:26;19210.28;;;-141.84;69.40
15260;BME280;34462;51.368;12.364;2023-02-18T01:08:56;19230.59;;;-141.84;68.94
15260;BME280;34462;51.368;12.364;2023-02-18T01:11:24;19244.81;;;-141.84;68.93
15260;BME280;34462;51.368;12.364;2023-02-18T01:13:53;19242.78;;;-141.84;68.85
15260;BME280;34462;51.368;12.364;2023-02-18T01:16:21;19234.66;;;-141.84;68.91
15260;BME280;34462;51.368;12.364;2023-02-18T01:18:49;19228.56;;;-141.84;68.87
15260;BME280;34462;51.368;12.364;2023-02-18T01:21:17;19236.69;;;-141.84;68.09
15260;BME280;34462;51.368;12.364;2023-02-18T01:23:45;19259.03;;;-141.84;68.51
15260;BME280;34462;51.368;12.364;2023-02-18T01:26:15;19226.53;;;-141.84;68.25
15260;BME280;34462;51.368;12.364;2023-02-18T01:28:44;19232.63;;;-141.84;69.13
15260;BME280;34462;51.368;12.364;2023-02-18T01:31:13;19228.56;;;-141.84;68.68
15260;BME280;34462;51.368;12.364;2023-02-18T01:33:42;19263.09;;;-141.84;68.70
15260;BME280;34462;51.368;12.364;2023-02-18T01:36:11;19204.19;;;-141.84;68.83
15260;BME280;34462;51.368;12.364;2023-02-18T01:38:39;19297.66;;;-141.84;67.40
15260;BME280;34462;51.368;12.364;2023-02-18T01:41:08;19261.06;;;-141.84;67.23
15260;BME280;34462;51.368;12.364;2023-02-18T01:43:38;19269.22;;;-141.84;67.36
15260;BME280;34462;51.368;12.364;2023-02-18T01:46:17;19277.34;;;-141.84;66.27
15260;BME280;34462;51.368;12.364;2023-02-18T01:48:50;19299.69;;;-141.84;66.21
15260;BME280;34462;51.368;12.364;2023-02-18T01:51:24;19281.41;;;-141.84;66.45
15260;BME280;34462;51.368;12.364;2023-02-18T01:53:59;19250.91;;;-141.84;66.51
15260;BME280;34462;51.368;12.364;2023-02-18T01:56:33;19228.56;;;-141.84;67.54
15260;BME280;34462;51.368;12.364;2023-02-18T01:59:13;19271.25;;;-141.84;67.01
15260;BME280;34462;51.368;12.364;2023-02-18T02:01:44;19265.13;;;-141.84;67.48
15260;BME280;34462;51.368;12.364;2023-02-18T02:04:13;19271.25;;;-141.84;67.04
15260;BME280;34462;51.368;12.364;2023-02-18T02:06:41;19301.72;;;-141.84;66.52
15260;BME280;34462;51.368;12.364;2023-02-18T02:09:13;19293.59;;;-141.84;65.77
15260;BME280;34462;51.368;12.364;2023-02-18T02:12:15;19271.25;;;-141.84;65.70
15260;BME280;34462;51.368;12.364;2023-02-18T02:15:05;19315.94;;;-141.84;65.10
15260;BME280;34462;51.368;12.364;2023-02-18T02:17:50;19307.81;;;-141.84;64.92
15260;BME280;34462;51.368;12.364;2023-02-18T02:24:22;19348.47;;;-141.84;64.53
15260;BME280;34462;51.368;12.364;2023-02-18T02:27:24;19334.22;;;-141.84;65.64
15260;BME280;34462;51.368;12.364;2023-02-18T02:33:45;19301.72;;;-141.84;66.65
15260;BME280;34462;51.368;12.364;2023-02-18T02:36:23;19305.78;;;-141.84;66.66
15260;BME280;34462;51.368;12.364;2023-02-18T02:39:02;19334.22;;;-141.84;65.63
15260;BME280;34462;51.368;12.364;2023-02-18T02:41:46;19336.25;;;-141.84;65.77
15260;BME280;34462;51.368;12.364;2023-02-18T02:44:21;19362.69;;;-141.84;65.18
15260;BME280;34462;51.368;12.364;2023-02-18T02:46:59;19336.25;;;-141.84;66.03
15260;BME280;34462;51.368;12.364;2023-02-18T02:49:36;19295.63;;;-141.84;66.58
15260;BME280;34462;51.368;12.364;2023-02-18T02:52:12;19326.09;;;-141.84;66.87
15260;BME280;34462;51.368;12.364;2023-02-18T02:54:41;19338.28;;;-141.84;66.70
15260;BME280;34462;51.368;12.364;2023-02-18T02:57:51;19340.31;;;-141.84;65.50
15260;BME280;34462;51.368;12.364;2023-02-18T03:00:30;19338.28;;;-141.84;65.91
15260;BME280;34462;51.368;12.364;2023-02-18T03:03:34;19332.19;;;-141.84;66.21
15260;BME280;34462;51.368;12.364;2023-02-18T03:06:27;19358.63;;;-141.84;65.83
15260;BME280;34462;51.368;12.364;2023-02-18T03:09:11;19336.25;;;-141.84;65.82
15260;BME280;34462;51.368;12.364;2023-02-18T03:11:52;19326.09;;;-141.84;65.65
15260;BME280;34462;51.368;12.364;2023-02-18T03:14:29;19346.44;;;-141.84;66.59
15260;BME280;34462;51.368;12.364;2023-02-18T03:17:05;19374.88;;;-141.84;65.49
15260;BME280;34462;51.368;12.364;2023-02-18T03:19:44;19348.47;;;-141.84;64.81
15260;BME280;34462;51.368;12.364;2023-02-18T03:22:20;19352.53;;;-141.84;65.56
15260;BME280;34462;51.368;12.364;2023-02-18T03:24:55;19350.50;;;-141.84;65.20
15260;BME280;34462;51.368;12.364;2023-02-18T03:27:30;19352.53;;;-141.84;65.98
15260;BME280;34462;51.368;12.364;2023-02-18T03:30:05;19322.03;;;-141.84;65.78
15260;BME280;34462;51.368;12.364;2023-02-18T03:32:35;19324.06;;;-141.84;65.42
15260;BME280;34462;51.368;12.364;2023-02-18T03:35:10;19338.28;;;-141.84;64.92
15260;BME280;34462;51.368;12.364;2023-02-18T03:37:47;19370.81;;;-141.84;65.05
15260;BME280;34462;51.368;12.364;2023-02-18T03:40:19;19358.63;;;-141.84;65.34
15260;BME280;34462;51.368;12.364;2023-02-18T03:42:47;19358.63;;;-141.84;65.98
15260;BME280;34462;51.368;12.364;2023-02-18T03:45:15;19358.63;;;-141.84;65.81
15260;BME280;34462;51.368;12.364;2023-02-18T03:47:43;19291.56;;;-141.84;66.52
15260;BME280;34462;51.368;12.364;2023-02-18T03:50:12;19295.63;;;-141.84;66.68
15260;BME280;34462;51.368;12.364;2023-02-18T03:52:40;19334.22;;;-141.84;66.23
15260;BME280;34462;51.368;12.364;2023-02-18T03:55:08;19317.97;;;-141.84;66.75
15260;BME280;34462;51.368;12.364;2023-02-18T03:57:38;19352.53;;;-141.84;66.66
15260;BME280;34462;51.368;12.364;2023-02-18T04:00:08;19315.94;;;-141.84;67.10
15260;BME280;34462;51.368;12.364;2023-02-18T04:02:37;19344.41;;;-141.84;67.38
15260;BME280;34462;51.368;12.364;2023-02-18T04:05:07;19317.97;;;-141.84;67.01
15260;BME280;34462;51.368;12.364;2023-02-18T04:07:35;19328.13;;;-141.84;67.20
15260;BME280;34462;51.368;12.364;2023-02-18T04:10:06;19336.25;;;-141.84;68.01
15260;BME280;34462;51.368;12.364;2023-02-18T04:12:34;19352.53;;;-141.84;66.96
15260;BME280;34462;51.368;12.364;2023-02-18T04:15:04;19317.97;;;-141.84;68.26
15260;BME280;34462;51.368;12.364;2023-02-18T04:17:33;19328.13;;;-141.84;68.94
15260;BME280;34462;51.368;12.364;2023-02-18T04:20:01;19283.44;;;-141.84;69.62
15260;BME280;34462;51.368;12.364;2023-02-18T04:22:30;19297.66;;;-141.84;68.51
15260;BME280;34462;51.368;12.364;2023-02-18T04:24:58;19275.31;;;-141.84;69.62
15260;BME280;34462;51.368;12.364;2023-02-18T04:27:27;19273.28;;;-141.84;69.78
15260;BME280;34462;51.368;12.364;2023-02-18T04:29:55;19303.75;;;-141.84;69.94
15260;BME280;34462;51.368;12.364;2023-02-18T04:32:25;19293.59;;;-141.84;69.61
15260;BME280;34462;51.368;12.364;2023-02-18T04:34:53;19315.94;;;-141.84;70.01
15260;BME280;34462;51.368;12.364;2023-02-18T04:37:21;19283.44;;;-141.84;70.00
15260;BME280;34462;51.368;12.364;2023-02-18T04:39:49;19291.56;;;-141.84;70.73
15260;BME280;34462;51.368;12.364;2023-02-18T04:42:17;19287.50;;;-141.84;71.27
15260;BME280;34462;51.368;12.364;2023-02-18T04:44:46;19244.81;;;-141.84;71.81
15260;BME280;34462;51.368;12.364;2023-02-18T04:47:14;19257.00;;;-141.84;72.33
15260;BME280;34462;51.368;12.364;2023-02-18T04:49:43;19240.75;;;-141.84;72.51
15260;BME280;34462;51.368;12.364;2023-02-18T04:52:12;19261.06;;;-141.84;73.11
15260;BME280;34462;51.368;12.364;2023-02-18T04:54:40;19269.22;;;-141.84;72.72
15260;BME280;34462;51.368;12.364;2023-02-18T04:57:08;19242.78;;;-141.84;74.04
15260;BME280;34462;51.368;12.364;2023-02-18T04:59:37;19220.44;;;-141.84;74.46
15260;BME280;34462;51.368;12.364;2023-02-18T05:02:05;19265.13;;;-141.84;75.19
15260;BME280;34462;51.368;12.364;2023-02-18T05:04:33;19204.19;;;-141.84;75.45
15260;BME280;34462;51.368;12.364;2023-02-18T05:07:03;19234.66;;;-141.84;75.99
15260;BME280;34462;51.368;12.364;2023-02-18T05:09:31;19238.72;;;-141.84;76.71
15260;BME280;34462;51.368;12.364;2023-02-18T05:11:59;19181.81;;;-141.84;77.37
15260;BME280;34462;51.368;12.364;2023-02-18T05:14:27;19228.56;;;-141.84;77.28
15260;BME280;34462;51.368;12.364;2023-02-18T05:16:55;19194.03;;;-141.84;78.13
15260;BME280;34462;51.368;12.364;2023-02-18T05:19:24;19179.78;;;-141.84;78.38
15260;BME280;34462;51.368;12.364;2023-02-18T05:21:52;19185.88;;;-141.84;78.60
15260;BME280;34462;51.368;12.364;2023-02-18T05:24:21;19196.06;;;-141.84;78.81
15260;BME280;34462;51.368;12.364;2023-02-18T05:26:50;19208.25;;;-141.84;79.05
15260;BME280;34462;51.368;12.364;2023-02-18T05:29:18;19210.28;;;-141.84;79.27
15260;BME280;34462;51.368;12.364;2023-02-18T05:31:46;19171.66;;;-141.84;79.63
15260;BME280;34462;51.368;12.364;2023-02-18T05:34:14;19175.72;;;-141.84;79.81
15260;BME280;34462;51.368;12.364;2023-02-18T05:36:42;19185.88;;;-141.84;80.12
15260;BME280;34462;51.368;12.364;2023-02-18T05:39:11;19147.28;;;-141.84;80.82
15260;BME280;34462;51.368;12.364;2023-02-18T05:41:40;19159.47;;;-141.84;81.83
15260;BME280;34462;51.368;12.364;2023-02-18T05:44:08;19147.28;;;-141.84;82.00
15260;BME280;34462;51.368;12.364;2023-02-18T05:46:54;19159.47;;;-141.84;82.75
15260;BME280;34462;51.368;12.364;2023-02-18T05:49:22;19165.56;;;-141.84;82.94
15260;BME280;34462;51.368;12.364;2023-02-18T05:51:50;19143.22;;;-141.84;82.73
15260;BME280;34462;51.368;12.364;2023-02-18T05:54:18;19120.88;;;-141.84;83.01
15260;BME280;34462;51.368;12.364;2023-02-18T05:56:48;19122.91;;;-141.84;83.50
15260;BME280;34462;51.368;12.364;2023-02-18T05:59:17;19102.56;;;-141.84;83.79
15260;BME280;34462;51.368;12.364;2023-02-18T06:01:45;19112.75;;;-141.84;84.44
15260;BME280;34462;51.368;12.364;2023-02-18T06:04:14;19141.19;;;-141.84;83.66
15260;BME280;34462;51.368;12.364;2023-02-18T06:06:43;19149.31;;;-141.84;84.07
15260;BME280;34462;51.368;12.364;2023-02-18T06:09:11;19135.09;;;-141.84;84.47
15260;BME280;34462;51.368;12.364;2023-02-18T06:11:40;19116.81;;;-141.84;83.94
15260;BME280;34462;51.368;12.364;2023-02-18T06:14:09;19086.31;;;-141.84;84.77
15260;BME280;34462;51.368;12.364;2023-02-18T06:16:37;19090.38;;;-141.84;85.45
15260;BME280;34462;51.368;12.364;2023-02-18T06:19:05;19076.16;;;-141.84;85.91
15260;BME280;34462;51.368;12.364;2023-02-18T06:21:34;19070.06;;;-141.84;86.24
15260;BME280;34462;51.368;12.364;2023-02-18T06:24:02;19084.28;;;-141.84;86.89
15260;BME280;34462;51.368;12.364;2023-02-18T06:26:31;19041.63;;;-141.84;87.45
15260;BME280;34462;51.368;12.364;2023-02-18T06:29:00;19031.47;;;-141.84;88.29
15260;BME280;34462;51.368;12.364;2023-02-18T06:31:29;19037.56;;;-141.84;88.80
15260;BME280;34462;51.368;12.364;2023-02-18T06:33:57;19000.97;;;-141.84;89.77
15260;BME280;34462;51.368;12.364;2023-02-18T06:36:25;19007.06;;;-141.84;90.18
15260;BME280;34462;51.368;12.364;2023-02-18T06:38:54;18994.88;;;-141.84;90.97
15260;BME280;34462;51.368;12.364;2023-02-18T06:41:23;18966.44;;;-141.84;91.38
15260;BME280;34462;51.368;12.364;2023-02-18T06:43:51;19005.03;;;-141.84;91.53
15260;BME280;34462;51.368;12.364;2023-02-18T06:46:19;18998.94;;;-141.84;91.40
15260;BME280;34462;51.368;12.364;2023-02-18T06:48:49;18984.72;;;-141.84;91.69
15260;BME280;34462;51.368;12.364;2023-02-18T06:51:17;18964.41;;;-141.84;91.83
15260;BME280;34462;51.368;12.364;2023-02-18T06:53:45;18964.41;;;-141.84;91.92
15260;BME280;34462;51.368;12.364;2023-02-18T06:56:13;18968.47;;;-141.84;92.44
15260;BME280;34462;51.368;12.364;2023-02-18T06:58:42;18988.78;;;-141.84;92.76
15260;BME280;34462;51.368;12.364;2023-02-18T07:01:10;18962.38;;;-141.84;92.92
15260;BME280;34462;51.368;12.364;2023-02-18T07:03:38;18940.03;;;-141.84;92.85
15260;BME280;34462;51.368;12.364;2023-02-18T07:06:08;18952.22;;;-141.84;93.54
15260;BME280;34462;51.368;12.364;2023-02-18T07:08:36;18933.94;;;-141.84;93.90
15260;BME280;34462;51.368;12.364;2023-02-18T07:11:05;18944.09;;;-141.84;94.24
15260;BME280;34462;51.368;12.364;2023-02-18T07:13:34;18925.81;;;-141.84;94.20
15260;BME280;34462;51.368;12.364;2023-02-18T07:16:02;18921.75;;;-141.84;94.10
15260;BME280;34462;51.368;12.364;2023-02-18T07:18:30;18903.44;;;-141.84;93.99
15260;BME280;34462;51.368;12.364;2023-02-18T07:20:59;18954.25;;;-141.84;94.45
15260;BME280;34462;51.368;12.364;2023-02-18T07:23:28;18931.91;;;-141.84;94.46
15260;BME280;34462;51.368;12.364;2023-02-18T07:26:05;18917.66;;;-141.84;94.27
15260;BME280;34462;51.368;12.364;2023-02-18T07:28:34;18938.00;;;-141.84;94.64
15260;BME280;34462;51.368;12.364;2023-02-18T07:31:03;18923.78;;;-141.84;94.44
15260;BME280;34462;51.368;12.364;2023-02-18T07:33:31;18935.97;;;-141.84;94.71
15260;BME280;34462;51.368;12.364;2023-02-18T07:36:01;18919.69;;;-141.84;94.54
15260;BME280;34462;51.368;12.364;2023-02-18T07:38:31;18929.88;;;-141.84;94.24
15260;BME280;34462;51.368;12.364;2023-02-18T07:40:59;18948.16;;;-141.84;93.00
15260;BME280;34462;51.368;12.364;2023-02-18T07:43:27;18956.28;;;-141.84;93.37
15260;BME280;34462;51.368;12.364;2023-02-18T07:45:55;18950.19;;;-141.84;93.08
15260;BME280;34462;51.368;12.364;2023-02-18T07:48:24;18970.50;;;-141.84;93.24
15260;BME280;34462;51.368;12.364;2023-02-18T07:50:54;18970.50;;;-141.84;92.74
15260;BME280;34462;51.368;12.364;2023-02-18T07:53:22;18974.56;;;-141.84;92.72
15260;BME280;34462;51.368;12.364;2023-02-18T07:55:51;18980.66;;;-141.84;92.09
15260;BME280;34462;51.368;12.364;2023-02-18T07:58:23;18982.69;;;-141.84;92.08
15260;BME280;34462;51.368;12.364;2023-02-18T08:00:52;18968.47;;;-141.84;91.89
15260;BME280;34462;51.368;12.364;2023-02-18T08:03:23;19025.38;;;-141.84;91.31
15260;BME280;34462;51.368;12.364;2023-02-18T08:05:52;19013.16;;;-141.84;90.91
15260;BME280;34462;51.368;12.364;2023-02-18T08:08:24;18996.91;;;-141.84;89.73
15260;BME280;34462;51.368;12.364;2023-02-18T08:10:58;18982.69;;;-141.84;90.04
15260;BME280;34462;51.368;12.364;2023-02-18T08:13:39;18984.72;;;-141.84;90.23
15260;BME280;34462;51.368;12.364;2023-02-18T08:16:09;19029.44;;;-141.84;88.81
15260;BME280;34462;51.368;12.364;2023-02-18T08:18:37;19003.00;;;-141.84;88.17
15260;BME280;34462;51.368;12.364;2023-02-18T08:21:05;19053.81;;;-141.84;87.74
15260;BME280;34462;51.368;12.364;2023-02-18T08:23:33;19029.44;;;-141.84;87.79
15260;BME280;34462;51.368;12.364;2023-02-18T08:26:03;19033.50;;;-141.84;87.21
15260;BME280;34462;51.368;12.364;2023-02-18T08:28:32;19035.53;;;-141.84;88.04
15260;BME280;34462;51.368;12.364;2023-02-18T08:31:01;19037.56;;;-141.84;87.51
15260;BME280;34462;51.368;12.364;2023-02-18T08:33:29;19057.88;;;-141.84;86.89
15260;BME280;34462;51.368;12.364;2023-02-18T08:35:58;19035.53;;;-141.84;86.74
15260;BME280;34462;51.368;12.364;2023-02-18T08:38:26;19045.69;;;-141.84;86.90
15260;BME280;34462;51.368;12.364;2023-02-18T08:41:03;19053.81;;;-141.84;86.82
15260;BME280;34462;51.368;12.364;2023-02-18T08:43:33;19106.66;;;-141.84;85.61
15260;BME280;34462;51.368;12.364;2023-02-18T08:46:01;19057.88;;;-141.84;85.16
15260;BME280;34462;51.368;12.364;2023-02-18T08:48:32;19106.66;;;-141.84;84.56
15260;BME280;34462;51.368;12.364;2023-02-18T08:51:10;19104.59;;;-141.84;84.28
15260;BME280;34462;51.368;12.364;2023-02-18T08:53:39;19112.75;;;-141.84;84.71
15260;BME280;34462;51.368;12.364;2023-02-18T08:56:09;19063.97;;;-141.84;84.71
15260;BME280;34462;51.368;12.364;2023-02-18T08:58:39;19100.53;;;-141.84;84.76
15260;BME280;34462;51.368;12.364;2023-02-18T09:01:11;19092.41;;;-141.84;84.55
15260;BME280;34462;51.368;12.364;2023-02-18T09:03:40;19122.91;;;-141.84;84.27
15260;BME280;34462;51.368;12.364;2023-02-18T09:06:08;19106.66;;;-141.84;83.93
15260;BME280;34462;51.368;12.364;2023-02-18T09:08:36;19171.66;;;-141.84;83.51
15260;BME280;34462;51.368;12.364;2023-02-18T09:11:04;19192.00;;;-141.84;83.52
15260;BME280;34462;51.368;12.364;2023-02-18T09:13:35;19163.53;;;-141.84;83.54
15260;BME280;34462;51.368;12.364;2023-02-18T09:16:09;19120.88;;;-141.84;84.51
15260;BME280;34462;51.368;12.364;2023-02-18T09:18:38;19104.59;;;-141.84;84.68
15260;BME280;34462;51.368;12.364;2023-02-18T09:21:07;19110.72;;;-141.84;85.52
15260;BME280;34462;51.368;12.364;2023-02-18T09:23:37;19094.44;;;-141.84;85.66
15260;BME280;34462;51.368;12.364;2023-02-18T09:26:07;19139.16;;;-141.84;85.00
15260;BME280;34462;51.368;12.364;2023-02-18T09:28:37;19118.84;;;-141.84;84.92
15260;BME280;34462;51.368;12.364;2023-02-18T09:31:08;19141.19;;;-141.84;84.47
15260;BME280;34462;51.368;12.364;2023-02-18T09:33:41;19159.47;;;-141.84;84.94
15260;BME280;34462;51.368;12.364;2023-02-18T09:36:12;19104.59;;;-141.84;85.23
15260;BME280;34462;51.368;12.364;2023-02-18T09:38:40;19147.28;;;-141.84;84.55
15260;BME280;34462;51.368;12.364;2023-02-18T09:41:21;19135.09;;;-141.84;84.21
15260;BME280;34462;51.368;12.364;2023-02-18T09:43:56;19139.16;;;-141.84;84.11
15260;BME280;34462;51.368;12.364;2023-02-18T09:46:31;19151.34;;;-141.84;84.06
15260;BME280;34462;51.368;12.364;2023-02-18T09:49:03;19161.50;;;-141.84;83.66
15260;BME280;34462;51.368;12.364;2023-02-18T09:51:34;19157.44;;;-141.84;82.39
15260;BME280;34462;51.368;12.364;2023-02-18T09:54:02;19165.56;;;-141.84;81.91
15260;BME280;34462;51.368;12.364;2023-02-18T09:56:36;19194.03;;;-141.84;81.45
15260;BME280;34462;51.368;12.364;2023-02-18T09:59:16;19212.31;;;-141.84;81.36
15260;BME280;34462;51.368;12.364;2023-02-18T10:01:47;19218.41;;;-141.84;81.43
15260;BME280;34462;51.368;12.364;2023-02-18T10:04:22;19234.66;;;-141.84;80.34
15260;BME280;34462;51.368;12.364;2023-02-18T10:06:53;19228.56;;;-141.84;79.42
15260;BME280;34462;51.368;12.364;2023-02-18T10:09:27;19265.13;;;-141.84;79.04
15260;BME280;34462;51.368;12.364;2023-02-18T10:12:00;19261.06;;;-141.84;78.68
15260;BME280;34462;51.368;12.364;2023-02-18T10:14:33;19289.53;;;-141.84;78.59
15260;BME280;34462;51.368;12.364;2023-02-18T10:17:03;19328.13;;;-141.84;77.92
15260;BME280;34462;51.368;12.364;2023-02-18T10:19:36;19338.28;;;-141.84;77.09
15260;BME280;34462;51.368;12.364;2023-02-18T10:22:10;19395.19;;;-141.84;75.64
15260;BME280;34462;51.368;12.364;2023-02-18T10:24:46;19393.16;;;-141.84;74.98
15260;BME280;34462;51.368;12.364;2023-02-18T10:27:20;19413.47;;;-141.84;74.45
15260;BME280;34462;51.368;12.364;2023-02-18T10:29:54;19435.84;;;-141.84;73.99
15260;BME280;34462;51.368;12.364;2023-02-18T10:32:27;19429.75;;;-141.84;73.50
15260;BME280;34462;51.368;12.364;2023-02-18T10:35:07;19435.84;;;-141.84;73.15
15260;BME280;34462;51.368;12.364;2023-02-18T10:37:56;19464.28;;;-141.84;73.11
15260;BME280;34462;51.368;12.364;2023-02-18T10:40:43;19460.22;;;-141.84;72.56
15260;BME280;34462;51.368;12.364;2023-02-18T10:43:24;19470.38;;;-141.84;72.76
15260;BME280;34462;51.368;12.364;2023-02-18T10:46:06;19458.19;;;-141.84;72.31
15260;BME280;34462;51.368;12.364;2023-02-18T10:49:12;19462.25;;;-141.84;71.95
15260;BME280;34462;51.368;12.364;2023-02-18T10:51:53;19470.38;;;-141.84;72.11
15260;BME280;34462;51.368;12.364;2023-02-18T10:54:25;19492.75;;;-141.84;71.69
15260;BME280;34462;51.368;12.364;2023-02-18T10:56:59;19553.72;;;-141.84;72.55
15260;BME280;34462;51.368;12.364;2023-02-18T10:59:32;19476.47;;;-141.84;72.10
15260;BME280;34462;51.368;12.364;2023-02-18T11:02:12;19476.47;;;-141.84;72.18
15260;BME280;34462;51.368;12.364;2023-02-18T11:04:45;19496.81;;;-141.84;72.11
15260;BME280;34462;51.368;12.364;2023-02-18T11:07:18;19504.94;;;-141.84;71.88
15260;BME280;34462;51.368;12.364;2023-02-18T11:09:51;19486.66;;;-141.84;72.06
15260;BME280;34462;51.368;12.364;2023-02-18T11:12:24;19468.34;;;-141.84;72.03
15260;BME280;34462;51.368;12.364;2023-02-18T11:15:14;19529.31;;;-141.84;72.05
15260;BME280;34462;51.368;12.364;2023-02-18T11:17:47;19482.56;;;-141.84;71.25
15260;BME280;34462;51.368;12.364;2023-02-18T11:20:28;19492.75;;;-141.84;71.68
15260;BME280;34462;51.368;12.364;2023-02-18T11:23:13;19478.50;;;-141.84;71.50
15260;BME280;34462;51.368;12.364;2023-02-18T11:25:58;19498.84;;;-141.84;70.97
15260;BME280;34462;51.368;12.364;2023-02-18T11:28:42;19504.94;;;-141.84;71.46
15260;BME280;34462;51.368;12.364;2023-02-18T11:31:19;19476.47;;;-141.84;70.88
15260;BME280;34462;51.368;12.364;2023-02-18T11:33:54;19553.72;;;-141.84;70.02
15260;BME280;34462;51.368;12.364;2023-02-18T11:36:28;19517.13;;;-141.84;70.30
15260;BME280;34462;51.368;12.364;2023-02-18T11:38:59;19527.28;;;-141.84;70.41
15260;BME280;34462;51.368;12.364;2023-02-18T11:41:34;19504.94;;;-141.84;70.22
15260;BME280;34462;51.368;12.364;2023-02-18T11:44:16;19523.22;;;-141.84;70.04
15260;BME280;34462;51.368;12.364;2023-02-18T11:46:58;19517.13;;;-141.84;70.44
15260;BME280;34462;51.368;12.364;2023-02-18T11:49:30;19494.78;;;-141.84;70.11
15260;BME280;34462;51.368;12.364;2023-02-18T11:52:14;19488.69;;;-141.84;70.34
15260;BME280;34462;51.368;12.364;2023-02-18T11:55:00;19486.66;;;-141.84;72.30
15260;BME280;34462;51.368;12.364;2023-02-18T11:57:31;19427.72;;;-141.84;72.27
15260;BME280;34462;51.368;12.364;2023-02-18T12:00:03;19478.50;;;-141.84;71.76
15260;BME280;34462;51.368;12.364;2023-02-18T12:02:36;19484.59;;;-141.84;71.01
15260;BME280;34462;51.368;12.364;2023-02-18T12:05:15;19468.34;;;-141.84;70.69
15260;BME280;34462;51.368;12.364;2023-02-18T12:07:48;19517.13;;;-141.84;69.94
15260;BME280;34462;51.368;12.364;2023-02-18T12:10:26;19539.47;;;-141.84;69.09
15260;BME280;34462;51.368;12.364;2023-02-18T12:13:02;19586.22;;;-141.84;68.29
15260;BME280;34462;51.368;12.364;2023-02-18T12:16:00;19563.88;;;-141.84;68.05
15260;BME280;34462;51.368;12.364;2023-02-18T12:19:07;19537.44;;;-141.84;67.19
15260;BME280;34462;51.368;12.364;2023-02-18T12:21:57;19561.84;;;-141.84;67.16
15260;BME280;34462;51.368;12.364;2023-02-18T12:24:46;19557.78;;;-141.84;67.66
15260;BME280;34462;51.368;12.364;2023-02-18T12:27:24;19561.84;;;-141.84;67.29
15260;BME280;34462;51.368;12.364;2023-02-18T12:30:28;19561.84;;;-141.84;67.02
15260;BME280;34462;51.368;12.364;2023-02-18T12:33:07;19541.50;;;-141.84;66.90
15260;BME280;34462;51.368;12.364;2023-02-18T12:36:01;19586.22;;;-141.84;66.77
15260;BME280;34462;51.368;12.364;2023-02-18T12:39:02;19567.94;;;-141.84;67.23
15260;BME280;34462;51.368;12.364;2023-02-18T12:41:45;19572.00;;;-141.84;67.03
15260;BME280;34462;51.368;12.364;2023-02-18T12:44:33;19602.47;;;-141.84;66.35
15260;BME280;34462;51.368;12.364;2023-02-18T12:47:30;19572.00;;;-141.84;67.44
15260;BME280;34462;51.368;12.364;2023-02-18T12:50:35;19537.44;;;-141.84;69.37
15260;BME280;34462;51.368;12.364;2023-02-18T12:53:37;19488.69;;;-141.84;70.06
15260;BME280;34462;51.368;12.364;2023-02-18T12:56:40;19521.19;;;-141.84;69.07
15260;BME280;34462;51.368;12.364;2023-02-18T12:59:42;19555.75;;;-141.84;69.08
15260;BME280;34462;51.368;12.364;2023-02-18T13:02:40;19576.06;;;-141.84;67.35
15260;BME280;34462;51.368;12.364;2023-02-18T13:05:30;19594.34;;;-141.84;67.07
15260;BME280;34462;51.368;12.364;2023-02-18T13:08:22;19620.78;;;-141.84;66.26
15260;BME280;34462;51.368;12.364;2023-02-18T13:11:08;19622.81;;;-141.84;65.36